DONNÉES MÉTÉO

HIER
Time Temp. Dewp. Hum. Bar.
00:07 20 14.6 71 1024.4
00:16 20 14.6 71 1024.4
00:26 19.9 15.1 74 1024.4
00:37 20.1 15.3 74 1024.4
00:47 20.2 14.8 71 1024.4
00:56 20.1 14.5 70 1024.3
01:07 19.9 14.3 70 1024.3
01:17 19.8 14.2 70 1024.4
01:27 19.7 14.1 70 1024.4
01:37 19.6 14 70 1024.4
01:48 19.6 13.8 69 1024.4
01:57 19.5 13.9 70 1024.4
02:07 19.5 13.9 70 1024.4
02:17 19.4 13.8 70 1024.3
02:28 19.4 13.8 70 1024.2
02:38 19.4 13.6 69 1024.2
02:47 19.3 13.5 69 1024.2
02:58 19.3 13.5 69 1024.2
03:08 19.3 13.5 69 1024
03:18 19.3 13.5 69 1023.9
03:28 19.3 13.5 69 1023.9
03:38 19.2 13.2 68 1023.8
03:48 19.2 13.2 68 1023.7
03:58 19.1 13.3 69 1023.6
04:09 19.1 13.3 69 1023.5
04:18 19.1 13.3 69 1023.5
04:28 19 13.2 69 1023.4
04:38 19 13.2 69 1023.3
04:49 19 13 68 1023.3
04:59 18.9 12.9 68 1023.4
05:08 18.9 12.9 68 1023.3
05:19 18.9 12.9 68 1023.3
05:29 18.8 12.8 68 1023.4
05:39 18.8 12.8 68 1023.3
05:49 18.8 12.8 68 1023.3
05:59 18.7 12.7 68 1023.3
06:09 18.7 12.9 69 1023.4
06:19 18.6 12.6 68 1023.4
06:29 18.6 12.6 68 1023.5
06:39 18.6 12.6 68 1023.5
06:49 18.5 12.7 69 1023.6
06:59 18.5 12.5 68 1023.7
07:10 18.5 12.7 69 1023.8
07:20 18.4 12.6 69 1023.9
07:29 18.4 12.6 69 1024.1
07:40 18.4 12.6 69 1024.1
07:50 18.4 12.6 69 1024.3
08:00 18.5 12.7 69 1024.4
08:10 18.4 12.8 70 1024.4
08:20 18.5 12.9 70 1024.5
08:30 18.5 12.9 70 1024.6
08:40 18.5 12.9 70 1024.7
08:50 18.6 13.2 71 1024.7
09:01 18.6 13.2 71 1024.7
09:10 18.6 13.5 72 1024.8
09:20 18.7 13.6 72 1025
09:31 18.8 13.7 72 1025.1
09:41 18.9 13.7 72 1025.1
09:51 18.9 14 73 1025.1
10:01 19 14.1 73 1025.2
10:11 19 13.8 72 1025.3
10:21 19.1 14.2 73 1025.3
10:31 19.3 15 76 1025.3
10:42 19.7 14.9 74 1025.3
10:52 19.7 14.7 73 1025.4
11:01 19.7 14.7 73 1025.4
11:11 19.7 14.7 73 1025.4
11:22 19.7 14.7 73 1025.4
11:32 19.8 14.8 73 1025.4
11:41 19.9 14.7 72 1025.5
11:46 19.9 14.7 72 1025.5
11:57 19.9 14.7 72 1025.6
12:07 19.9 14.7 72 1025.7
12:16 20 14.6 71 1025.7
12:27 20 14.6 71 1025.8
12:37 20 14.8 72 1025.7
12:47 20.1 14.9 72 1025.9
12:57 20.1 14.7 71 1025.8
13:07 20.1 14.7 71 1025.7
13:17 20.1 14.9 72 1025.7
13:27 20.1 14.7 71 1025.7
13:38 20.2 15.4 74 1025.7
13:48 20.2 15.2 73 1025.7
13:57 20.2 14.8 71 1025.6
14:07 20.3 15.1 72 1025.5
14:18 20.3 15.3 73 1025.5
14:28 20.3 15.1 72 1025.5
14:37 20.3 14.9 71 1025.5
14:49 20.3 14.9 71 1025.5
14:59 20.3 15.1 72 1025.5
15:09 20.4 15 71 1025.5
15:19 20.4 15.2 72 1025.5
15:30 20.4 15 71 1025.5
15:39 20.3 15.1 72 1025.5
15:49 20.3 15.1 72 1025.5
15:59 20.3 15.1 72 1025.5
16:10 20.3 15.3 73 1025.4
16:20 20.3 15.3 73 1025.4
16:29 20.3 15.1 72 1025.4
16:40 20.3 15.1 72 1025.3
16:50 20.2 15 72 1025.2
17:00 20.2 15 72 1025.3
17:10 20.2 15 72 1025.2
17:20 20.2 15 72 1025.2
17:30 20.2 15 72 1025.1
17:40 20.2 15 72 1025.1
17:50 20.2 15 72 1025.2
18:01 20.1 14.9 72 1025.2
18:10 20.1 14.7 71 1025.3
18:20 20.1 14.9 72 1025.4
18:31 20.1 14.9 72 1025.3
18:41 20.1 14.9 72 1025.3
18:51 20.1 14.9 72 1025.3
19:01 20 14.8 72 1025.3
19:11 20 14.8 72 1025.4
19:21 20 15 73 1025.4
19:31 20 15 73 1025.5
19:42 20 15 73 1025.4
19:51 20 15 73 1025.4
20:01 20 15 73 1025.5
20:11 20 15 73 1025.6
20:22 19.9 14.9 73 1025.7
20:31 19.9 14.9 73 1025.7
20:41 19.9 14.9 73 1025.8
20:52 19.9 14.9 73 1025.8
21:02 19.8 14.8 73 1025.8
21:12 19.8 14.8 73 1025.8
21:22 19.8 14.8 73 1025.9
21:32 19.8 14.8 73 1026
21:42 19.7 14.9 74 1026.1
21:52 19.7 14.7 73 1026.1
22:03 19.7 14.7 73 1026.2
22:13 19.7 14.7 73 1026.3
22:22 19.7 14.7 73 1026.4
22:32 19.7 14.9 74 1026.4
22:43 19.6 14.8 74 1026.3
22:53 19.5 14.7 74 1026.4
23:03 19.5 14.7 74 1026.6
23:13 19.4 14.7 74 1026.5
23:23 19.4 14.7 74 1026.6
23:33 19.3 14.6 74 1026.7
23:43 19.3 14.6 74 1026.5
23:53 19.2 14.5 74 1026.5

SATISTIQUES DU JOUR

2021-05-11
TEMPÉRATURE
MOYEN
19.6
MAXI
20.4
15:09
MINI
18.4
07:20
PRESSION
MOYEN
1025.0
MAXI
1026.7
23:33
MINI
1023.3
04:38
POINT DE ROSÉE
MOYEN
14.2
MAXI
15.4
13:38
MINI
12.5
06:59
HUMIDITÉ
MOYEN
71
MAXI
76
10:31
MINI
68
03:38
TEMPÉRATURE (°C)
MINI
18.4
MAXI
20.4
MOYEN
19.6
PRESSION (hpa)
MINI
1023.3
MAXI
1026.7
MOYEN
1025.0
DEVICE